Time,TemperatureF,DewpointF,PressureIn,WindDirection,WindDirectionDegrees,WindSpeedMPH,WindSpeedGustMPH,Humidity,HourlyPrecipIn,Conditions,Clouds,dailyrainin,SoftwareType,DateUTC
2013-03-10 00:00:00,30.7,25.6,30.17,South,180,3.7,5.9,81,0.00,CLR,,0.00,WeatherDisplay:10.37,2013-03-10 05:00:00,
2013-03-10 00:01:00,31.5,26.3,30.16,ENE,68,1.1,5.8,81,0.00,CLR,,0.00,WeatherDisplay:10.37,2013-03-10 05:01:00,
2013-03-10 00:04:00,31.3,26.1,30.16,NNW,338,3.3,4.0,81,0.00,CLR,,0.00,WeatherDisplay:10.37,2013-03-10 05:04:00,
2013-03-10 00:05:00,31.3,26.1,30.16,WNW,292,1.6,3.5,81,0.00,CLR,,0.00,WeatherDisplay:10.37,2013-03-10 05:05:00,
2013-03-10 00:11:00,31.3,26.1,30.16,North,360,0.0,0.0,81,0.00,CLR,,0.00,WeatherDisplay:10.37,2013-03-10 05:11:00,
2013-03-10 00:16:00,31.6,26.4,30.16,NW,315,0.0,0.0,81,0.00,CLR,,0.00,WeatherDisplay:10.37,2013-03-10 05:16:00,
2013-03-10 00:22:00,32.0,25.9,30.16,East,90,0.0,2.3,78,0.00,CLR,,0.00,WeatherDisplay:10.37,2013-03-10 05:22:00,
2013-03-10 00:28:00,32.0,25.6,30.16,WNW,292,2.1,2.7,77,0.00,CLR,,0.00,WeatherDisplay:10.37,2013-03-10 05:28:00,
2013-03-10 00:34:00,32.5,26.4,30.16,ESE,112,0.9,2.3,78,0.00,CLR,,0.00,WeatherDisplay:10.37,2013-03-10 05:34:00,
2013-03-10 00:40:00,32.9,26.2,30.16,West,270,1.9,2.3,76,0.00,CLR,,0.00,WeatherDisplay:10.37,2013-03-10 05:40:00,
2013-03-10 00:46:00,33.6,26.8,30.16,NW,315,3.1,3.5,76,0.00,CLR,,0.00,WeatherDisplay:10.37,2013-03-10 05:46:00,
2013-03-10 00:52:00,34.0,27.2,30.16,NNW,338,2.4,2.7,76,0.00,CLR,,0.00,WeatherDisplay:10.37,2013-03-10 05:52:00,
2013-03-10 00:58:00,34.0,27.5,30.16,NW,315,0.0,0.0,77,0.00,CLR,,0.00,WeatherDisplay:10.37,2013-03-10 05:58:00,
2013-03-10 01:04:00,34.0,27.5,30.16,East,90,1.0,2.3,77,0.00,CLR,,0.00,WeatherDisplay:10.37,2013-03-10 06:04:00,
2013-03-10 01:10:00,34.2,27.4,30.16,East,90,0.0,0.0,76,0.00,CLR,,0.00,WeatherDisplay:10.37,2013-03-10 06:10:00,
2013-03-10 01:15:00,34.2,28.1,30.16,WNW,292,1.7,2.3,78,0.00,CLR,,0.00,WeatherDisplay:10.37,2013-03-10 06:15:00,
2013-03-10 01:21:00,34.2,28.1,30.16,NE,45,0.0,0.0,78,0.00,CLR,,0.00,WeatherDisplay:10.37,2013-03-10 06:21:00,
2013-03-10 01:27:00,34.2,27.4,30.16,NW,315,0.0,0.0,76,0.00,CLR,,0.00,WeatherDisplay:10.37,2013-03-10 06:27:00,
2013-03-10 01:33:00,34.2,28.4,30.16,WNW,292,0.0,0.0,79,0.00,CLR,,0.00,WeatherDisplay:10.37,2013-03-10 06:33:00,
2013-03-10 01:39:00,34.0,28.2,30.16,NW,315,0.0,0.0,79,0.00,CLR,,0.00,WeatherDisplay:10.37,2013-03-10 06:39:00,
2013-03-10 01:45:00,33.8,28.3,30.16,West,270,0.0,0.0,80,0.00,CLR,,0.00,WeatherDisplay:10.37,2013-03-10 06:45:00,
2013-03-10 01:51:00,33.4,27.9,30.15,NW,315,0.0,0.0,80,0.00,CLR,,0.00,WeatherDisplay:10.37,2013-03-10 06:51:00,
2013-03-10 01:57:00,33.3,28.7,30.15,East,90,0.0,2.3,83,0.00,CLR,,0.00,WeatherDisplay:10.37,2013-03-10 06:57:00,
2013-03-10 03:03:00,33.1,28.5,30.15,NNE,22,0.0,0.0,83,0.00,CLR,,0.00,WeatherDisplay:10.37,2013-03-10 07:03:00,
2013-03-10 03:09:00,32.9,28.0,30.15,WNW,292,0.0,0.0,82,0.00,CLR,,0.00,WeatherDisplay:10.37,2013-03-10 07:09:00,
2013-03-10 03:15:00,32.7,27.8,30.14,NW,315,0.0,0.0,82,0.00,CLR,,0.00,WeatherDisplay:10.37,2013-03-10 07:15:00,
2013-03-10 03:20:00,32.7,28.1,30.14,South,180,0.0,0.0,83,0.00,CLR,,0.00,WeatherDisplay:10.37,2013-03-10 07:20:00,
2013-03-10 03:26:00,32.7,28.1,30.14,ENE,68,0.0,0.0,83,0.00,CLR,,0.00,WeatherDisplay:10.37,2013-03-10 07:26:00,
2013-03-10 03:32:00,32.4,28.1,30.14,NW,315,0.0,0.0,84,0.00,CLR,,0.00,WeatherDisplay:10.37,2013-03-10 07:32:00,
2013-03-10 03:38:00,32.2,27.9,30.14,North,360,0.0,0.0,84,0.00,CLR,,0.00,WeatherDisplay:10.37,2013-03-10 07:38:00,
2013-03-10 03:44:00,32.4,28.4,30.14,NNW,338,0.0,0.0,85,0.00,CLR,,0.00,WeatherDisplay:10.37,2013-03-10 07:44:00,
2013-03-10 03:50:00,32.4,28.4,30.14,WNW,292,0.0,0.0,85,0.00,CLR,,0.00,WeatherDisplay:10.37,2013-03-10 07:50:00,
2013-03-10 03:56:00,32.2,28.2,30.14,West,270,0.0,0.0,85,0.00,CLR,,0.00,WeatherDisplay:10.37,2013-03-10 07:56:00,
2013-03-10 04:02:00,32.2,28.5,30.13,NW,315,2.3,2.7,86,0.00,CLR,,0.00,WeatherDisplay:10.37,2013-03-10 08:02:00,
2013-03-10 04:08:00,32.2,28.2,30.13,NW,315,1.0,2.3,85,0.00,CLR,,0.00,WeatherDisplay:10.37,2013-03-10 08:08:00,
2013-03-10 04:14:00,32.2,28.5,30.13,West,270,0.0,0.0,86,0.00,OVC,,0.00,WeatherDisplay:10.37,2013-03-10 08:14:00,
2013-03-10 04:19:00,32.2,28.5,30.13,NNW,338,0.0,0.0,86,0.00,OVC,,0.00,WeatherDisplay:10.37,2013-03-10 08:19:00,
2013-03-10 04:25:00,32.4,28.7,30.12,ENE,68,0.0,0.0,86,0.00,OVC,,0.00,WeatherDisplay:10.37,2013-03-10 08:25:00,
2013-03-10 04:31:00,32.5,28.5,30.12,NE,45,0.0,0.0,85,0.00,OVC,,0.00,WeatherDisplay:10.37,2013-03-10 08:31:00,
2013-03-10 04:37:00,32.7,28.4,30.12,NNW,338,0.0,0.0,84,0.00,OVC,,0.00,WeatherDisplay:10.37,2013-03-10 08:37:00,
2013-03-10 04:43:00,33.1,29.1,30.12,West,270,0.0,0.0,85,0.00,OVC,,0.00,WeatherDisplay:10.37,2013-03-10 08:43:00,
2013-03-10 04:49:00,33.4,28.8,30.11,SW,225,0.0,0.0,83,0.00,OVC,,0.00,WeatherDisplay:10.37,2013-03-10 08:49:00,
2013-03-10 04:55:00,33.8,29.2,30.11,NNW,338,0.0,0.0,83,0.00,OVC,,0.00,WeatherDisplay:10.37,2013-03-10 08:55:00,
2013-03-10 05:01:00,34.0,30.0,30.11,North,360,2.5,3.5,85,0.00,OVC,,0.00,WeatherDisplay:10.37,2013-03-10 09:01:00,
2013-03-10 05:07:00,34.5,29.6,30.11,WNW,292,2.5,2.7,82,0.00,OVC,,0.00,WeatherDisplay:10.37,2013-03-10 09:07:00,
2013-03-10 05:13:00,34.9,30.3,30.12,West,270,2.1,2.7,83,0.00,OVC,,0.00,WeatherDisplay:10.37,2013-03-10 09:13:00,
2013-03-10 05:18:00,34.9,30.3,30.12,West,270,0.0,0.0,83,0.00,OVC,,0.00,WeatherDisplay:10.37,2013-03-10 09:18:00,
2013-03-10 05:24:00,35.1,30.2,30.12,SSE,158,0.0,0.0,82,0.00,OVC,,0.00,WeatherDisplay:10.37,2013-03-10 09:24:00,
2013-03-10 05:30:00,35.2,30.6,30.12,NNW,338,0.0,0.0,83,0.00,OVC,,0.00,WeatherDisplay:10.37,2013-03-10 09:30:00,
2013-03-10 05:36:00,35.4,30.1,30.12,NE,45,0.0,0.0,81,0.00,OVC,,0.00,WeatherDisplay:10.37,2013-03-10 09:36:00,
2013-03-10 05:42:00,35.6,30.6,30.12,NNW,338,0.0,0.0,82,0.00,OVC,,0.00,WeatherDisplay:10.37,2013-03-10 09:42:00,
2013-03-10 05:48:00,35.8,30.5,30.12,West,270,0.0,0.0,81,0.00,OVC,,0.00,WeatherDisplay:10.37,2013-03-10 09:48:00,
2013-03-10 05:54:00,35.8,31.1,30.12,SSW,202,0.0,0.0,83,0.00,OVC,,0.00,WeatherDisplay:10.37,2013-03-10 09:54:00,
2013-03-10 06:00:00,35.6,30.6,30.12,NW,315,0.0,0.0,82,0.00,OVC,,0.00,WeatherDisplay:10.37,2013-03-10 10:00:00,
2013-03-10 06:06:00,35.4,30.5,30.12,NW,315,0.0,0.0,82,0.00,OVC,,0.00,WeatherDisplay:10.37,2013-03-10 10:06:00,
2013-03-10 06:12:00,35.4,30.8,30.12,NW,315,0.0,1.2,83,0.00,OVC,,0.00,WeatherDisplay:10.37,2013-03-10 10:12:00,
2013-03-10 06:17:00,35.4,30.8,30.12,SSE,158,0.0,0.0,83,0.00,OVC,,0.00,WeatherDisplay:10.37,2013-03-10 10:17:00,
2013-03-10 06:23:00,35.4,30.8,30.12,South,180,0.0,0.0,83,0.00,OVC,,0.00,WeatherDisplay:10.37,2013-03-10 10:23:00,
2013-03-10 06:29:00,35.4,30.8,30.12,South,180,0.0,0.0,83,0.00,OVC,,0.00,WeatherDisplay:10.37,2013-03-10 10:29:00,
2013-03-10 06:35:00,35.4,30.8,30.12,South,180,0.0,0.0,83,0.00,OVC,,0.00,WeatherDisplay:10.37,2013-03-10 10:35:00,
2013-03-10 06:41:00,34.9,30.8,30.13,SSE,158,0.0,0.0,85,0.00,OVC,,0.00,WeatherDisplay:10.37,2013-03-10 10:41:00,
2013-03-10 06:47:00,34.7,30.4,30.13,West,270,0.0,0.0,84,0.00,OVC,,0.00,WeatherDisplay:10.37,2013-03-10 10:47:00,
2013-03-10 06:53:00,34.2,30.4,30.12,NE,45,1.1,2.3,86,0.00,OVC,,0.00,WeatherDisplay:10.37,2013-03-10 10:53:00,
2013-03-10 06:59:00,33.8,30.1,30.12,NW,315,2.4,2.7,86,0.00,OVC,,0.00,WeatherDisplay:10.37,2013-03-10 10:59:00,
2013-03-10 07:05:00,33.8,30.3,30.13,WNW,292,3.3,4.0,87,0.00,OVC,,0.00,WeatherDisplay:10.37,2013-03-10 11:05:00,
2013-03-10 07:11:00,33.8,30.1,30.13,NE,45,2.1,2.3,86,0.00,OVC,,0.00,WeatherDisplay:10.37,2013-03-10 11:11:00,
2013-03-10 07:16:00,34.0,30.5,30.13,WSW,248,0.0,0.0,87,0.00,BKN,,0.00,WeatherDisplay:10.37,2013-03-10 11:16:00,
2013-03-10 07:22:00,34.0,30.3,30.13,NW,315,0.0,0.0,86,0.00,BKN,,0.00,WeatherDisplay:10.37,2013-03-10 11:22:00,
2013-03-10 07:28:00,34.2,30.4,30.13,ENE,68,0.0,0.0,86,0.00,BKN,,0.00,WeatherDisplay:10.37,2013-03-10 11:28:00,
2013-03-10 07:34:00,34.3,30.8,30.13,West,270,0.0,0.0,87,0.00,BKN,,0.00,WeatherDisplay:10.37,2013-03-10 11:34:00,
2013-03-10 07:40:00,34.5,30.5,30.13,SSE,158,0.0,0.0,85,0.00,BKN,,0.00,WeatherDisplay:10.37,2013-03-10 11:40:00,
2013-03-10 07:46:00,34.7,30.4,30.13,ENE,68,0.0,0.0,84,0.00,BKN,,0.00,WeatherDisplay:10.37,2013-03-10 11:46:00,
2013-03-10 07:52:00,35.2,30.9,30.13,SSE,158,0.0,0.0,84,0.00,BKN,,0.00,WeatherDisplay:10.37,2013-03-10 11:52:00,
2013-03-10 07:58:00,35.4,30.8,30.13,NE,45,0.0,0.0,83,0.00,BKN,,0.00,WeatherDisplay:10.37,2013-03-10 11:58:00,
2013-03-10 08:04:00,35.6,30.9,30.13,WNW,292,0.0,0.0,83,0.00,BKN,,0.00,WeatherDisplay:10.37,2013-03-10 12:04:00,
2013-03-10 08:10:00,36.0,31.3,30.13,NW,315,0.0,0.0,83,0.00,BKN,,0.00,WeatherDisplay:10.37,2013-03-10 12:10:00,
2013-03-10 08:15:00,36.3,30.4,30.14,ESE,112,2.0,2.7,79,0.00,BKN,,0.00,WeatherDisplay:10.37,2013-03-10 12:15:00,
2013-03-10 08:21:00,36.5,31.5,30.14,SW,225,0.0,2.3,82,0.00,BKN,,0.00,WeatherDisplay:10.37,2013-03-10 12:21:00,
2013-03-10 08:27:00,36.5,30.9,30.14,ENE,68,0.0,0.0,80,0.00,BKN,,0.00,WeatherDisplay:10.37,2013-03-10 12:27:00,
2013-03-10 08:33:00,37.0,30.8,30.14,SSW,202,0.0,0.0,78,0.00,BKN,,0.00,WeatherDisplay:10.37,2013-03-10 12:33:00,
2013-03-10 08:39:00,37.2,31.6,30.14,SW,225,0.0,0.0,80,0.00,BKN,,0.00,WeatherDisplay:10.37,2013-03-10 12:39:00,
2013-03-10 08:45:00,37.6,31.7,30.14,ESE,112,0.0,0.0,79,0.00,BKN,,0.00,WeatherDisplay:10.37,2013-03-10 12:45:00,
2013-03-10 08:51:00,37.9,32.3,30.14,SSW,202,0.0,0.0,80,0.00,BKN,,0.00,WeatherDisplay:10.37,2013-03-10 12:51:00,
2013-03-10 08:57:00,38.3,32.4,30.14,SE,135,0.0,0.0,79,0.00,BKN,,0.00,WeatherDisplay:10.37,2013-03-10 12:57:00,
2013-03-10 09:03:00,38.8,32.5,30.14,NE,45,0.0,0.0,78,0.00,BKN,,0.00,WeatherDisplay:10.37,2013-03-10 13:03:00,
2013-03-10 09:09:00,39.4,33.4,30.14,WNW,292,0.0,0.0,79,0.00,BKN,,0.00,WeatherDisplay:10.37,2013-03-10 13:09:00,
2013-03-10 09:14:00,39.7,33.4,30.15,ESE,112,0.0,0.0,78,0.00,FEW,,0.00,WeatherDisplay:10.37,2013-03-10 13:14:00,
2013-03-10 09:20:00,40.3,34.3,30.15,SE,135,0.0,0.0,79,0.00,FEW,,0.00,WeatherDisplay:10.37,2013-03-10 13:20:00,
2013-03-10 09:26:00,41.0,34.0,30.14,SW,225,0.0,0.0,76,0.00,FEW,,0.00,WeatherDisplay:10.37,2013-03-10 13:26:00,
2013-03-10 09:32:00,42.1,34.1,30.14,WSW,248,0.0,0.0,73,0.00,FEW,,0.00,WeatherDisplay:10.37,2013-03-10 13:32:00,
2013-03-10 09:38:00,42.4,34.0,30.15,ESE,112,0.0,0.0,72,0.00,FEW,,0.00,WeatherDisplay:10.37,2013-03-10 13:38:00,
2013-03-10 09:44:00,43.5,33.6,30.15,NE,45,0.0,0.0,68,0.00,FEW,,0.00,WeatherDisplay:10.37,2013-03-10 13:44:00,
2013-03-10 09:50:00,45.0,33.5,30.15,NW,315,0.0,0.0,64,0.00,FEW,,0.00,WeatherDisplay:10.37,2013-03-10 13:50:00,
2013-03-10 09:55:00,46.0,34.5,30.15,WSW,248,0.0,0.0,64,0.00,FEW,,0.00,WeatherDisplay:10.37,2013-03-10 13:55:00,
2013-03-10 10:11:00,49.3,35.6,30.15,North,360,0.0,0.0,59,0.00,FEW,,0.00,WeatherDisplay:10.37,2013-03-10 14:11:00,
2013-03-10 10:16:00,49.6,37.1,30.14,SE,135,0.0,0.0,62,0.00,FEW,,0.00,WeatherDisplay:10.37,2013-03-10 14:16:00,
2013-03-10 10:22:00,50.2,36.4,30.14,NNW,338,0.0,0.0,59,0.00,SCT,,0.00,WeatherDisplay:10.37,2013-03-10 14:22:00,
2013-03-10 10:28:00,50.2,36.4,30.14,NNW,338,0.0,0.0,59,0.00,SCT,,0.00,WeatherDisplay:10.37,2013-03-10 14:28:00,
2013-03-10 10:34:00,50.2,36.4,30.14,NNW,338,0.0,0.0,59,0.00,SCT,,0.00,WeatherDisplay:10.37,2013-03-10 14:34:00,
2013-03-10 10:40:00,52.2,32.0,30.14,WSW,248,0.0,0.0,46,0.00,SCT,,0.00,WeatherDisplay:10.37,2013-03-10 14:40:00,
2013-03-10 10:46:00,52.5,30.0,30.14,SW,225,0.0,0.0,42,0.00,SCT,,0.00,WeatherDisplay:10.37,2013-03-10 14:46:00,
2013-03-10 10:52:00,54.1,29.0,30.15,SSW,202,0.0,0.0,38,0.00,SCT,,0.00,WeatherDisplay:10.37,2013-03-10 14:52:00,
2013-03-10 10:57:00,54.7,30.2,30.15,SSW,202,1.4,2.1,39,0.00,SCT,,0.00,WeatherDisplay:10.37,2013-03-10 14:57:00,
2013-03-10 11:03:00,54.1,30.9,30.15,ESE,112,2.0,2.3,41,0.00,BKN,,0.00,WeatherDisplay:10.37,2013-03-10 15:03:00,
2013-03-10 11:09:00,55.4,32.1,30.15,SSE,158,0.0,2.3,41,0.00,BKN,,0.00,WeatherDisplay:10.37,2013-03-10 15:09:00,
2013-03-10 11:15:00,57.4,31.3,30.14,SSE,158,2.3,2.7,37,0.00,BKN,,0.00,WeatherDisplay:10.37,2013-03-10 15:15:00,
2013-03-10 11:21:00,57.9,31.1,30.14,South,180,2.3,3.5,36,0.00,BKN,,0.00,WeatherDisplay:10.37,2013-03-10 15:21:00,
2013-03-10 11:27:00,58.5,30.9,30.14,ENE,68,1.1,3.5,35,0.00,BKN,,0.00,WeatherDisplay:10.37,2013-03-10 15:27:00,
2013-03-10 11:32:00,59.5,30.3,30.14,East,90,3.2,4.6,33,0.00,BKN,,0.00,WeatherDisplay:10.37,2013-03-10 15:32:00,
2013-03-10 11:38:00,58.8,29.7,30.14,ESE,112,2.4,5.8,33,0.00,BKN,,0.00,WeatherDisplay:10.37,2013-03-10 15:38:00,
2013-03-10 11:44:00,59.7,31.3,30.14,West,270,1.9,3.5,34,0.00,BKN,,0.00,WeatherDisplay:10.37,2013-03-10 15:44:00,
2013-03-10 11:50:00,61.9,30.1,30.13,SW,225,5.2,5.9,30,0.00,BKN,,0.00,WeatherDisplay:10.37,2013-03-10 15:50:00,
2013-03-10 11:55:00,62.4,29.7,30.13,West,270,4.0,5.8,29,0.00,BKN,,0.00,WeatherDisplay:10.37,2013-03-10 15:55:00,
2013-03-10 12:01:00,62.8,29.2,30.13,South,180,3.6,5.8,28,0.00,BKN,,0.00,WeatherDisplay:10.37,2013-03-10 16:01:00,
2013-03-10 12:07:00,63.9,31.0,30.13,South,180,4.3,5.3,29,0.00,BKN,,0.00,WeatherDisplay:10.37,2013-03-10 16:07:00,
2013-03-10 12:12:00,63.7,30.0,30.13,South,180,5.3,8.1,28,0.00,CLR,,0.00,WeatherDisplay:10.37,2013-03-10 16:12:00,
2013-03-10 12:18:00,64.2,30.4,30.13,ESE,112,5.4,7.8,28,0.00,CLR,,0.00,WeatherDisplay:10.37,2013-03-10 16:18:00,
2013-03-10 12:24:00,64.9,30.1,30.13,SW,225,3.7,6.9,27,0.00,CLR,,0.00,WeatherDisplay:10.37,2013-03-10 16:24:00,
2013-03-10 12:29:00,63.9,30.1,30.13,South,180,6.9,6.9,28,0.00,BKN,,0.00,WeatherDisplay:10.37,2013-03-10 16:29:00,
2013-03-10 12:35:00,63.1,29.4,30.13,SE,135,4.7,5.9,28,0.00,BKN,,0.00,WeatherDisplay:10.37,2013-03-10 16:35:00,
2013-03-10 12:41:00,64.8,31.8,30.13,South,180,5.4,6.9,29,0.00,BKN,,0.00,WeatherDisplay:10.37,2013-03-10 16:41:00,
2013-03-10 12:47:00,64.9,30.1,30.13,South,180,6.1,9.2,27,0.00,BKN,,0.00,WeatherDisplay:10.37,2013-03-10 16:47:00,
2013-03-10 12:53:00,64.9,31.0,30.14,SSE,158,3.5,5.8,28,0.00,BKN,,0.00,WeatherDisplay:10.37,2013-03-10 16:53:00,
2013-03-10 12:59:00,66.4,32.3,30.14,SSW,202,4.6,5.8,28,0.00,BKN,,0.00,WeatherDisplay:10.37,2013-03-10 16:59:00,
2013-03-10 13:05:00,66.0,31.9,30.13,SW,225,3.9,4.0,28,0.00,BKN,,0.00,WeatherDisplay:10.37,2013-03-10 17:05:00,
2013-03-10 13:11:00,66.4,30.4,30.13,SSW,202,3.4,6.9,26,0.00,BKN,,0.00,WeatherDisplay:10.37,2013-03-10 17:11:00,
2013-03-10 13:17:00,66.6,30.6,30.13,South,180,4.3,8.1,26,0.00,BKN,,0.00,WeatherDisplay:10.37,2013-03-10 17:17:00,
2013-03-10 13:23:00,66.2,31.2,30.13,SSE,158,3.4,4.6,27,0.00,BKN,,0.00,WeatherDisplay:10.37,2013-03-10 17:23:00,
2013-03-10 13:28:00,67.3,32.1,30.12,SSE,158,6.7,9.8,27,0.00,BKN,,0.00,WeatherDisplay:10.37,2013-03-10 17:28:00,
2013-03-10 13:34:00,67.8,31.6,30.12,SW,225,5.9,6.9,26,0.00,BKN,,0.00,WeatherDisplay:10.37,2013-03-10 17:34:00,
2013-03-10 13:40:00,67.6,31.5,30.10,SE,135,5.4,10.4,26,0.00,BKN,,0.00,WeatherDisplay:10.37,2013-03-10 17:40:00,
2013-03-10 13:46:00,68.7,33.3,30.10,SSE,158,3.3,4.6,27,0.00,BKN,,0.00,WeatherDisplay:10.37,2013-03-10 17:46:00,
2013-03-10 13:52:00,68.7,33.3,30.10,East,90,3.0,3.5,27,0.00,BKN,,0.00,WeatherDisplay:10.37,2013-03-10 17:52:00,
2013-03-10 13:58:00,68.5,31.3,30.10,SSW,202,5.4,5.8,25,0.00,BKN,,0.00,WeatherDisplay:10.37,2013-03-10 17:58:00,
2013-03-10 14:04:00,69.3,32.9,30.09,SW,225,5.0,5.9,26,0.00,BKN,,0.00,WeatherDisplay:10.37,2013-03-10 18:04:00,
2013-03-10 14:10:00,69.1,32.7,30.09,West,270,4.0,5.8,26,0.00,FEW,,0.00,WeatherDisplay:10.37,2013-03-10 18:10:00,
2013-03-10 14:16:00,69.1,32.7,30.08,SE,135,7.1,8.5,26,0.00,,,0.00,WeatherDisplay:10.37,2013-03-10 18:16:00,
2013-03-10 14:22:00,68.5,32.2,30.08,SE,135,4.8,5.9,26,0.00,FEW,,0.00,WeatherDisplay:10.37,2013-03-10 18:22:00,
2013-03-10 14:27:00,68.2,32.9,30.08,East,90,5.2,7.2,27,0.00,BKN,,0.00,WeatherDisplay:10.37,2013-03-10 18:27:00,
2013-03-10 14:33:00,68.5,31.3,30.08,South,180,5.1,6.6,25,0.00,BKN,,0.00,WeatherDisplay:10.37,2013-03-10 18:33:00,
2013-03-10 14:39:00,68.5,32.2,30.08,SW,225,3.2,5.8,26,0.00,BKN,,0.00,WeatherDisplay:10.37,2013-03-10 18:39:00,
2013-03-10 14:45:00,69.6,33.2,30.08,South,180,4.8,6.9,26,0.00,BKN,,0.00,WeatherDisplay:10.37,2013-03-10 18:45:00,
2013-03-10 14:51:00,69.8,33.3,30.07,SSE,158,5.4,6.9,26,0.00,BKN,,0.00,WeatherDisplay:10.37,2013-03-10 18:51:00,
2013-03-10 14:57:00,69.3,33.9,30.07,ENE,68,4.5,7.2,27,0.00,BKN,,0.00,WeatherDisplay:10.37,2013-03-10 18:57:00,
2013-03-10 15:03:00,69.8,33.3,30.06,SSE,158,4.9,6.9,26,0.00,SCT,,0.00,WeatherDisplay:10.37,2013-03-10 19:03:00,
2013-03-10 15:09:00,69.8,32.4,30.06,SSE,158,5.7,6.9,25,0.00,SCT,,0.00,WeatherDisplay:10.37,2013-03-10 19:09:00,
2013-03-10 15:15:00,69.4,32.0,30.06,SSW,202,5.1,6.9,25,0.00,SCT,,0.00,WeatherDisplay:10.37,2013-03-10 19:15:00,
2013-03-10 15:20:00,70.5,33.9,30.06,SW,225,4.8,6.6,26,0.00,SCT,,0.00,WeatherDisplay:10.37,2013-03-10 19:20:00,
2013-03-10 15:26:00,71.1,33.5,30.06,SE,135,5.9,8.5,25,0.00,SCT,,0.00,WeatherDisplay:10.37,2013-03-10 19:26:00,
2013-03-10 15:31:00,71.1,33.5,30.06,SE,135,4.0,5.9,25,0.00,SCT,,0.00,WeatherDisplay:10.37,2013-03-10 19:31:00,
2013-03-10 15:37:00,70.2,32.7,30.05,South,180,7.0,10.4,25,0.00,SCT,,0.00,WeatherDisplay:10.37,2013-03-10 19:37:00,
2013-03-10 15:43:00,70.7,33.1,30.05,South,180,3.4,5.8,25,0.00,SCT,,0.00,WeatherDisplay:10.37,2013-03-10 19:43:00,
2013-03-10 15:49:00,70.2,32.7,30.04,South,180,7.6,10.4,25,0.00,SCT,,0.00,WeatherDisplay:10.37,2013-03-10 19:49:00,
2013-03-10 15:55:00,69.6,33.2,30.04,ENE,68,5.7,8.1,26,0.00,SCT,,0.00,WeatherDisplay:10.37,2013-03-10 19:55:00,
2013-03-10 16:01:00,70.2,33.7,30.04,SSE,158,5.2,6.9,26,0.00,SCT,,0.00,WeatherDisplay:10.37,2013-03-10 20:01:00,
2013-03-10 16:07:00,70.3,33.8,30.04,SSW,202,7.0,9.2,26,0.00,BKN,,0.00,WeatherDisplay:10.37,2013-03-10 20:07:00,
2013-03-10 16:13:00,70.5,33.9,30.04,East,90,5.7,9.2,26,0.00,BKN,,0.00,WeatherDisplay:10.37,2013-03-10 20:13:00,
2013-03-10 16:19:00,69.6,33.2,30.04,East,90,6.6,8.1,26,0.00,BKN,,0.00,WeatherDisplay:10.37,2013-03-10 20:19:00,
2013-03-10 16:25:00,70.0,33.5,30.04,SSW,202,4.0,5.9,26,0.00,BKN,,0.00,WeatherDisplay:10.37,2013-03-10 20:25:00,
2013-03-10 16:30:00,70.2,32.7,30.04,South,180,5.7,7.2,25,0.00,BKN,,0.00,WeatherDisplay:10.37,2013-03-10 20:30:00,
2013-03-10 16:36:00,69.8,33.3,30.04,South,180,5.0,6.9,26,0.00,BKN,,0.00,WeatherDisplay:10.37,2013-03-10 20:36:00,
2013-03-10 16:42:00,69.4,33.0,30.04,South,180,6.0,8.1,26,0.00,BKN,,0.00,WeatherDisplay:10.37,2013-03-10 20:42:00,
2013-03-10 16:48:00,68.9,32.6,30.04,ESE,112,4.1,6.9,26,0.00,BKN,,0.00,WeatherDisplay:10.37,2013-03-10 20:48:00,
2013-03-10 16:54:00,68.9,32.6,30.04,South,180,6.0,6.9,26,0.00,BKN,,0.00,WeatherDisplay:10.37,2013-03-10 20:54:00,
2013-03-10 17:00:00,68.5,32.2,30.04,South,180,4.7,5.8,26,0.00,BKN,,0.00,WeatherDisplay:10.37,2013-03-10 21:00:00,
2013-03-10 17:06:00,68.2,32.9,30.04,SE,135,4.1,7.8,27,0.00,BKN,,0.00,WeatherDisplay:10.37,2013-03-10 21:06:00,
2013-03-10 17:12:00,67.8,32.6,30.04,SSE,158,5.5,8.1,27,0.00,BKN,,0.00,WeatherDisplay:10.37,2013-03-10 21:12:00,
2013-03-10 17:18:00,67.3,32.1,30.03,West,270,4.4,6.9,27,0.00,BKN,,0.00,WeatherDisplay:10.37,2013-03-10 21:18:00,
2013-03-10 17:24:00,66.9,32.7,30.03,SW,225,5.8,7.2,28,0.00,BKN,,0.00,WeatherDisplay:10.37,2013-03-10 21:24:00,
2013-03-10 17:29:00,67.1,32.9,30.02,SSE,158,4.3,6.9,28,0.00,BKN,,0.00,WeatherDisplay:10.37,2013-03-10 21:29:00,
2013-03-10 17:35:00,66.4,32.3,30.02,South,180,5.3,5.9,28,0.00,BKN,,0.00,WeatherDisplay:10.37,2013-03-10 21:35:00,
2013-03-10 17:41:00,66.0,31.9,30.02,SSE,158,5.3,10.4,28,0.00,BKN,,0.00,WeatherDisplay:10.37,2013-03-10 21:41:00,
2013-03-10 17:47:00,65.8,32.6,30.02,ESE,112,5.5,9.2,29,0.00,BKN,,0.00,WeatherDisplay:10.37,2013-03-10 21:47:00,
2013-03-10 17:53:00,65.3,32.2,30.02,SSW,202,7.8,8.1,29,0.00,BKN,,0.00,WeatherDisplay:10.37,2013-03-10 21:53:00,
2013-03-10 17:59:00,65.3,33.0,30.02,East,90,7.7,11.5,30,0.00,BKN,,0.00,WeatherDisplay:10.37,2013-03-10 21:59:00,
2013-03-10 18:05:00,64.6,32.4,30.01,ENE,68,6.9,9.2,30,0.00,BKN,,0.00,WeatherDisplay:10.37,2013-03-10 22:05:00,
2013-03-10 18:11:00,64.6,32.4,30.01,SSE,158,5.8,9.2,30,0.00,BKN,,0.00,WeatherDisplay:10.37,2013-03-10 22:11:00,
2013-03-10 18:17:00,65.7,33.4,30.01,East,90,5.1,6.9,30,0.00,BKN,,0.00,WeatherDisplay:10.37,2013-03-10 22:17:00,
2013-03-10 18:23:00,64.4,33.1,30.01,SSE,158,6.3,9.8,31,0.00,BKN,,0.00,WeatherDisplay:10.37,2013-03-10 22:23:00,
2013-03-10 18:29:00,64.0,33.5,30.01,SSE,158,3.5,5.8,32,0.00,BKN,,0.00,WeatherDisplay:10.37,2013-03-10 22:29:00,
2013-03-10 18:34:00,63.5,33.1,30.01,SSE,158,5.1,10.4,32,0.00,BKN,,0.00,WeatherDisplay:10.37,2013-03-10 22:34:00,
2013-03-10 18:39:00,63.1,32.7,30.02,South,180,5.8,11.5,32,0.00,BKN,,0.00,WeatherDisplay:10.37,2013-03-10 22:39:00,
2013-03-10 18:45:00,62.8,33.2,30.02,East,90,5.2,6.9,33,0.00,BKN,,0.00,WeatherDisplay:10.37,2013-03-10 22:45:00,
2013-03-10 18:51:00,62.8,33.2,30.03,SE,135,6.6,11.7,33,0.00,BKN,,0.00,WeatherDisplay:10.37,2013-03-10 22:51:00,
2013-03-10 18:57:00,62.6,32.3,30.03,ESE,112,7.8,11.5,32,0.00,BKN,,0.00,WeatherDisplay:10.37,2013-03-10 22:57:00,
2013-03-10 19:02:00,62.4,32.9,30.03,SSW,202,5.0,9.2,33,0.00,BKN,,0.00,WeatherDisplay:10.37,2013-03-10 23:02:00,
2013-03-10 19:08:00,62.2,32.7,30.03,SSE,158,7.1,10.4,33,0.00,BKN,,0.00,WeatherDisplay:10.37,2013-03-10 23:08:00,
2013-03-10 19:14:00,61.9,32.5,30.03,SSE,158,5.0,10.4,33,0.00,BKN,,0.00,WeatherDisplay:10.37,2013-03-10 23:14:00,
2013-03-10 19:15:00,61.9,32.5,30.03,SSE,158,5.0,10.4,33,0.00,BKN,,0.00,WeatherDisplay:10.37,2013-03-10 23:15:00,
2013-03-10 19:20:00,61.9,32.5,30.03,SSE,158,5.0,10.4,33,0.00,BKN,,0.00,WeatherDisplay:10.37,2013-03-10 23:20:00,
2013-03-10 19:30:00,61.9,32.5,30.03,SSE,158,5.0,10.4,33,0.00,BKN,,0.00,WeatherDisplay:10.37,2013-03-10 23:30:00,
2013-03-10 19:36:00,61.0,31.7,30.02,SSW,202,7.3,11.5,33,0.00,BKN,,0.00,WeatherDisplay:10.37,2013-03-10 23:36:00,
2013-03-10 19:42:00,60.6,32.1,30.02,South,180,3.8,6.9,34,0.00,BKN,,0.00,WeatherDisplay:10.37,2013-03-10 23:42:00,
2013-03-10 19:47:00,60.4,31.9,30.02,SSE,158,5.9,8.5,34,0.00,BKN,,0.00,WeatherDisplay:10.37,2013-03-10 23:47:00,
2013-03-10 19:53:00,60.1,31.6,30.03,SSE,158,5.8,10.4,34,0.00,BKN,,0.00,WeatherDisplay:10.37,2013-03-10 23:53:00,
2013-03-10 19:58:00,60.3,31.8,30.03,South,180,9.6,12.3,34,0.00,BKN,,0.00,WeatherDisplay:10.37,2013-03-10 23:58:00,
2013-03-10 20:04:00,60.1,31.6,30.03,SSE,158,6.6,10.4,34,0.00,SKC,,0.00,WeatherDisplay:10.37,2013-03-11 00:04:00,
2013-03-10 20:10:00,59.9,31.4,30.03,SSE,158,7.5,10.4,34,0.00,SKC,,0.00,WeatherDisplay:10.37,2013-03-11 00:10:00,
2013-03-10 20:17:00,59.4,31.7,30.03,ESE,112,7.0,9.2,35,0.00,SKC,,0.00,WeatherDisplay:10.37,2013-03-11 00:17:00,
2013-03-10 20:23:00,59.2,31.5,30.03,SSE,158,2.7,5.8,35,0.00,SKC,,0.00,WeatherDisplay:10.37,2013-03-11 00:23:00,
2013-03-10 20:29:00,59.0,31.4,30.04,SSE,158,6.0,6.9,35,0.00,SKC,,0.00,WeatherDisplay:10.37,2013-03-11 00:29:00,
2013-03-10 20:35:00,59.0,31.4,30.04,SSE,158,5.4,10.4,35,0.00,SKC,,0.00,WeatherDisplay:10.37,2013-03-11 00:35:00,
2013-03-10 20:40:00,58.8,31.2,30.04,SW,225,5.1,6.9,35,0.00,SKC,,0.00,WeatherDisplay:10.37,2013-03-11 00:40:00,
2013-03-10 20:46:00,58.8,31.2,30.04,SSE,158,4.2,8.1,35,0.00,SKC,,0.00,WeatherDisplay:10.37,2013-03-11 00:46:00,
2013-03-10 20:51:00,58.6,31.7,30.04,South,180,4.0,6.6,36,0.00,SKC,,0.00,WeatherDisplay:10.37,2013-03-11 00:51:00,
2013-03-10 20:57:00,58.5,31.6,30.04,South,180,4.8,6.6,36,0.00,SKC,,0.00,WeatherDisplay:10.37,2013-03-11 00:57:00,
2013-03-10 21:03:00,58.3,31.4,30.03,SSE,158,3.0,9.1,36,0.00,SKC,,0.00,WeatherDisplay:10.37,2013-03-11 01:03:00,
2013-03-10 21:09:00,58.3,31.4,30.03,NE,45,2.9,6.9,36,0.00,SKC,,0.00,WeatherDisplay:10.37,2013-03-11 01:09:00,
2013-03-10 21:15:00,58.1,31.3,30.03,ESE,112,5.0,9.8,36,0.00,SKC,,0.00,WeatherDisplay:10.37,2013-03-11 01:15:00,
2013-03-10 21:21:00,58.1,31.3,30.03,ENE,68,5.3,5.9,36,0.00,SKC,,0.00,WeatherDisplay:10.37,2013-03-11 01:21:00,
2013-03-10 21:27:00,58.1,31.3,30.01,SSW,202,8.0,10.4,36,0.00,SKC,,0.00,WeatherDisplay:10.37,2013-03-11 01:27:00,
2013-03-10 21:33:00,57.9,31.1,30.01,South,180,8.1,9.8,36,0.00,SKC,,0.00,WeatherDisplay:10.37,2013-03-11 01:33:00,
2013-03-10 21:38:00,57.7,30.9,30.02,SSE,158,6.9,8.1,36,0.00,SKC,,0.00,WeatherDisplay:10.37,2013-03-11 01:38:00,
2013-03-10 21:44:00,57.9,31.1,30.02,WSW,248,5.1,10.4,36,0.00,SKC,,0.00,WeatherDisplay:10.37,2013-03-11 01:44:00,
2013-03-10 21:50:00,57.6,30.8,30.02,SSE,158,6.1,10.4,36,0.00,SKC,,0.00,WeatherDisplay:10.37,2013-03-11 01:50:00,
2013-03-10 21:56:00,57.4,31.3,30.02,SSE,158,3.9,10.4,37,0.00,SKC,,0.00,WeatherDisplay:10.37,2013-03-11 01:56:00,
2013-03-10 22:02:00,57.2,31.1,30.02,ESE,112,4.5,10.4,37,0.00,SKC,,0.00,WeatherDisplay:10.37,2013-03-11 02:02:00,
2013-03-10 22:07:00,57.2,31.1,30.02,SSE,158,5.6,10.4,37,0.00,SKC,,0.00,WeatherDisplay:10.37,2013-03-11 02:07:00,
2013-03-10 22:13:00,57.0,31.0,30.02,SSW,202,5.8,8.1,37,0.00,SKC,,0.00,WeatherDisplay:10.37,2013-03-11 02:13:00,
2013-03-10 22:19:00,57.0,31.0,30.02,SSW,202,3.4,3.5,37,0.00,SKC,,0.00,WeatherDisplay:10.37,2013-03-11 02:19:00,
2013-03-10 22:25:00,56.8,31.4,30.02,SSW,202,5.3,6.9,38,0.00,SKC,,0.00,WeatherDisplay:10.37,2013-03-11 02:25:00,
2013-03-10 22:31:00,56.3,31.0,30.02,South,180,3.7,4.6,38,0.00,SKC,,0.00,WeatherDisplay:10.37,2013-03-11 02:31:00,
2013-03-10 22:37:00,56.3,31.0,30.01,SSE,158,5.0,5.3,38,0.00,SKC,,0.00,WeatherDisplay:10.37,2013-03-11 02:37:00,
2013-03-10 22:42:00,55.9,30.6,30.01,SSE,158,3.8,5.8,38,0.00,SKC,,0.00,WeatherDisplay:10.37,2013-03-11 02:42:00,
2013-03-10 22:48:00,55.9,30.6,30.01,South,180,2.7,5.8,38,0.00,SKC,,0.00,WeatherDisplay:10.37,2013-03-11 02:48:00,
2013-03-10 22:54:00,55.6,31.0,30.01,SSE,158,1.8,3.5,39,0.00,SKC,,0.00,WeatherDisplay:10.37,2013-03-11 02:54:00,
2013-03-10 23:00:00,55.9,30.6,30.01,SSE,158,4.7,4.7,38,0.00,SKC,,0.00,WeatherDisplay:10.37,2013-03-11 03:00:00,
2013-03-10 23:06:00,56.7,30.7,30.01,South,180,8.3,11.5,37,0.00,SKC,,0.00,WeatherDisplay:10.37,2013-03-11 03:06:00,
2013-03-10 23:12:00,56.8,30.8,30.01,South,180,4.7,8.1,37,0.00,SKC,,0.00,WeatherDisplay:10.37,2013-03-11 03:12:00,
2013-03-10 23:18:00,56.7,30.7,30.00,SW,225,6.0,7.2,37,0.00,SKC,,0.00,WeatherDisplay:10.37,2013-03-11 03:18:00,
2013-03-10 23:24:00,57.0,31.0,30.00,SSE,158,5.4,8.1,37,0.00,SKC,,0.00,WeatherDisplay:10.37,2013-03-11 03:24:00,
2013-03-10 23:30:00,57.0,31.0,30.00,South,180,6.0,9.1,37,0.00,SKC,,0.00,WeatherDisplay:10.37,2013-03-11 03:30:00,
2013-03-10 23:36:00,57.0,31.0,30.00,South,180,6.1,10.4,37,0.00,SKC,,0.00,WeatherDisplay:10.37,2013-03-11 03:36:00,
2013-03-10 23:41:00,56.5,30.5,30.00,SW,225,5.2,6.9,37,0.00,SKC,,0.00,WeatherDisplay:10.37,2013-03-11 03:41:00,
2013-03-10 23:47:00,55.9,31.3,30.00,SSW,202,3.2,4.0,39,0.00,SKC,,0.00,WeatherDisplay:10.37,2013-03-11 03:47:00,
2013-03-10 23:53:00,55.8,31.2,30.02,SSE,158,3.1,4.6,39,0.00,SKC,,0.00,WeatherDisplay:10.37,2013-03-11 03:53:00,
2013-03-10 23:59:00,55.8,31.2,30.02,SW,225,4.0,5.9,39,0.00,SKC,,0.00,WeatherDisplay:10.37,2013-03-11 03:59:00,